createdAt,value
2023-05-10T00:01:08.857Z,101895.99
2023-05-10T00:03:35.842Z,101897.78
2023-05-10T00:06:02.973Z,101895.05
2023-05-10T00:08:29.739Z,101892.91
2023-05-10T00:10:56.789Z,101890.76
2023-05-10T00:13:23.606Z,101889.74
2023-05-10T00:15:50.516Z,101887.88
2023-05-10T00:18:17.392Z,101887.05
2023-05-10T00:20:44.237Z,101886.61
2023-05-10T00:23:11.171Z,101889.17
2023-05-10T00:25:37.937Z,101887.58
2023-05-10T00:28:04.955Z,101888.97
2023-05-10T00:30:32.053Z,101883.58
2023-05-10T00:32:58.972Z,101879.02
2023-05-10T00:35:27.185Z,101881.40
2023-05-10T00:37:54.154Z,101878.45
2023-05-10T00:40:21.828Z,101877.66
2023-05-10T00:42:51.669Z,101877.80
2023-05-10T00:45:18.550Z,101877.27
2023-05-10T00:47:45.439Z,101876.23
2023-05-10T00:50:12.521Z,101873.09
2023-05-10T00:52:39.578Z,101874.33
2023-05-10T00:55:07.345Z,101870.52
2023-05-10T00:57:34.222Z,101870.73
2023-05-10T01:00:01.373Z,101866.98
2023-05-10T01:02:28.459Z,101868.29
2023-05-10T01:04:57.488Z,101868.85
2023-05-10T01:07:24.425Z,101868.17
2023-05-10T01:09:51.201Z,101869.05
2023-05-10T01:12:18.537Z,101871.77
2023-05-10T01:14:45.416Z,101871.16
2023-05-10T01:17:12.430Z,101869.80
2023-05-10T01:19:39.351Z,101873.61
2023-05-10T01:22:06.156Z,101869.08
2023-05-10T01:24:33.570Z,101867.98
2023-05-10T01:27:00.537Z,101862.92
2023-05-10T01:29:46.277Z,101860.63
2023-05-10T01:32:13.067Z,101857.51
2023-05-10T01:34:53.513Z,101855.64
2023-05-10T01:37:26.684Z,101855.11
2023-05-10T01:39:56.452Z,101854.90
2023-05-10T01:42:28.595Z,101853.68
2023-05-10T01:45:01.458Z,101854.56
2023-05-10T01:47:32.127Z,101854.88
2023-05-10T01:49:59.563Z,101856.96
2023-05-10T01:52:39.006Z,101853.54
2023-05-10T01:55:06.778Z,101850.79
2023-05-10T01:57:36.441Z,101854.75
2023-05-10T02:00:04.710Z,101851.30
2023-05-10T02:02:43.384Z,101855.32
2023-05-10T02:05:11.873Z,101857.35
2023-05-10T02:07:38.653Z,101857.02
2023-05-10T02:10:05.756Z,101856.12
2023-05-10T02:12:32.817Z,101854.77
2023-05-10T02:15:00.869Z,101851.64
2023-05-10T02:17:27.792Z,101854.02
2023-05-10T02:19:55.034Z,101853.81
2023-05-10T02:22:21.871Z,101851.05
2023-05-10T02:24:48.803Z,101853.35
2023-05-10T02:27:15.612Z,101850.05
2023-05-10T02:29:42.576Z,101850.96
2023-05-10T02:32:09.987Z,101849.42
2023-05-10T02:34:37.697Z,101852.72
2023-05-10T02:37:04.482Z,101853.12
2023-05-10T02:39:33.069Z,101853.86
2023-05-10T02:41:59.965Z,101852.98
2023-05-10T02:44:27.210Z,101854.40
2023-05-10T02:46:57.117Z,101853.90
2023-05-10T02:49:23.927Z,101858.36
2023-05-10T02:51:52.453Z,101859.77
2023-05-10T02:54:24.440Z,101862.05
2023-05-10T02:57:09.519Z,101860.63
2023-05-10T02:59:36.444Z,101859.07
2023-05-10T03:02:03.373Z,101860.45
2023-05-10T03:04:30.253Z,101859.59
2023-05-10T03:06:57.228Z,101861.33
2023-05-10T03:09:24.139Z,101862.90
2023-05-10T03:12:02.055Z,101864.27
2023-05-10T03:14:49.266Z,101863.92
2023-05-10T03:17:17.177Z,101864.98
2023-05-10T03:19:52.017Z,101866.68
2023-05-10T03:22:21.579Z,101868.20
2023-05-10T03:24:48.425Z,101867.70
2023-05-10T03:27:15.419Z,101873.52
2023-05-10T03:29:42.634Z,101875.09
2023-05-10T03:32:09.607Z,101876.36
2023-05-10T03:34:37.345Z,101877.39
2023-05-10T03:37:04.760Z,101880.59
2023-05-10T03:39:31.710Z,101882.71
2023-05-10T03:41:59.180Z,101886.16
2023-05-10T03:44:26.042Z,101886.27
2023-05-10T03:46:53.162Z,101889.69
2023-05-10T03:49:20.255Z,101887.73
2023-05-10T03:51:47.607Z,101891.39
2023-05-10T03:54:14.426Z,101891.30
2023-05-10T03:56:41.743Z,101890.86
2023-05-10T03:59:09.978Z,101893.42
2023-05-10T04:01:36.854Z,101891.77
2023-05-10T04:04:03.815Z,101893.40
2023-05-10T04:06:32.027Z,101892.11
2023-05-10T04:09:01.128Z,101892.98
2023-05-10T04:11:27.935Z,101897.08
2023-05-10T04:13:54.714Z,101894.30
2023-05-10T04:16:21.543Z,101895.61
2023-05-10T04:18:49.350Z,101893.91
2023-05-10T04:21:16.136Z,101893.33
2023-05-10T04:23:42.978Z,101893.31
2023-05-10T04:26:09.768Z,101891.89
2023-05-10T04:28:36.681Z,101891.98
2023-05-10T04:31:04.109Z,101889.95
2023-05-10T04:33:31.114Z,101888.13
2023-05-10T04:35:57.997Z,101885.43
2023-05-10T04:38:24.992Z,101887.09
2023-05-10T04:40:51.885Z,101892.80
2023-05-10T04:43:18.783Z,101893.94
2023-05-10T04:45:45.617Z,101889.23
2023-05-10T04:48:12.469Z,101890.80
2023-05-10T04:50:40.125Z,101889.63
2023-05-10T04:53:07.049Z,101891.31
2023-05-10T04:55:34.124Z,101890.00
2023-05-10T04:58:01.804Z,101889.52
2023-05-10T05:00:29.885Z,101888.02
2023-05-10T05:02:56.806Z,101890.71
2023-05-10T05:05:23.773Z,101890.64
2023-05-10T05:07:51.753Z,101892.59
2023-05-10T05:10:18.808Z,101893.38
2023-05-10T05:12:46.093Z,101897.71
2023-05-10T05:15:12.989Z,101895.39
2023-05-10T05:17:40.054Z,101895.23
2023-05-10T05:20:07.146Z,101894.00
2023-05-10T05:22:33.978Z,101897.29
2023-05-10T05:25:01.674Z,101895.83
2023-05-10T05:27:29.109Z,101890.03
2023-05-10T05:29:56.400Z,101893.73
2023-05-10T05:32:23.905Z,101888.52
2023-05-10T05:34:50.682Z,101892.83
2023-05-10T05:37:18.257Z,101886.81
2023-05-10T05:39:45.201Z,101890.72
2023-05-10T05:42:12.417Z,101895.27
2023-05-10T05:44:39.481Z,101897.02
2023-05-10T05:47:06.890Z,101894.36
2023-05-10T05:49:33.887Z,101900.42
2023-05-10T05:52:03.330Z,101900.86
2023-05-10T05:54:30.638Z,101899.19
2023-05-10T05:57:01.475Z,101903.78
2023-05-10T05:59:28.778Z,101903.13
2023-05-10T06:01:55.918Z,101899.95
2023-05-10T06:04:22.902Z,101895.01
2023-05-10T06:06:52.841Z,101890.03
2023-05-10T06:09:19.982Z,101892.21
2023-05-10T06:11:47.524Z,101888.45
2023-05-10T06:14:14.336Z,101896.05
2023-05-10T06:16:42.453Z,101899.36
2023-05-10T06:19:09.645Z,101897.80
2023-05-10T06:21:39.423Z,101894.42
2023-05-10T06:24:07.770Z,101892.24
2023-05-10T06:26:34.753Z,101894.81
2023-05-10T06:29:02.440Z,101894.16
2023-05-10T06:31:32.552Z,101891.21
2023-05-10T06:33:59.431Z,101892.85
2023-05-10T06:36:27.537Z,101895.80
2023-05-10T06:38:57.191Z,101898.41
2023-05-10T06:41:25.028Z,101898.74
2023-05-10T06:43:59.703Z,101896.78
2023-05-10T06:46:26.954Z,101895.99
2023-05-10T06:48:54.027Z,101902.62
2023-05-10T06:51:22.407Z,101898.99
2023-05-10T06:53:49.379Z,101899.97
2023-05-10T06:56:16.480Z,101899.64
2023-05-10T06:58:43.689Z,101900.45
2023-05-10T07:01:10.900Z,101904.73
2023-05-10T07:03:40.954Z,101904.70
2023-05-10T07:06:13.341Z,101910.75
2023-05-10T07:08:45.692Z,101909.17
2023-05-10T07:11:12.752Z,101908.55
2023-05-10T07:13:42.506Z,101909.62
2023-05-10T07:16:12.346Z,101913.38
2023-05-10T07:18:39.483Z,101915.95
2023-05-10T07:21:07.227Z,101912.06
2023-05-10T07:23:34.395Z,101915.60
2023-05-10T07:26:01.306Z,101916.52
2023-05-10T07:28:28.220Z,101917.65
2023-05-10T07:30:55.352Z,101913.98
2023-05-10T07:33:25.771Z,101918.05
2023-05-10T07:35:52.968Z,101911.61
2023-05-10T07:38:20.015Z,101912.70
2023-05-10T07:40:46.975Z,101910.73
2023-05-10T07:43:14.282Z,101905.48
2023-05-10T07:45:41.189Z,101906.73
2023-05-10T07:48:08.200Z,101906.50
2023-05-10T07:50:35.353Z,101905.92
2023-05-10T07:53:02.462Z,101903.41
2023-05-10T07:55:29.314Z,101902.08
2023-05-10T07:57:56.608Z,101900.34
2023-05-10T08:00:23.453Z,101901.67
2023-05-10T08:02:50.632Z,101903.84
2023-05-10T08:05:17.956Z,101903.13
2023-05-10T08:07:45.155Z,101906.91
2023-05-10T08:10:14.933Z,101909.50
2023-05-10T08:12:41.835Z,101907.40
2023-05-10T08:15:09.324Z,101912.08
2023-05-10T08:17:36.265Z,101920.86
2023-05-10T08:20:03.352Z,101917.11
2023-05-10T08:22:30.257Z,101911.91
2023-05-10T08:24:57.148Z,101910.55
2023-05-10T08:27:24.318Z,101907.69
2023-05-10T08:29:51.191Z,101901.02
2023-05-10T08:32:18.617Z,101897.00
2023-05-10T08:34:45.979Z,101897.27
2023-05-10T08:37:15.767Z,101894.06
2023-05-10T08:39:42.793Z,101889.41
2023-05-10T08:42:09.762Z,101883.21
2023-05-10T08:44:37.607Z,101878.16
2023-05-10T08:47:05.850Z,101872.05
2023-05-10T08:49:39.408Z,101874.44
2023-05-10T08:52:08.575Z,101871.35
2023-05-10T08:54:40.427Z,101874.23
2023-05-10T08:57:07.334Z,101876.65
2023-05-10T08:59:34.366Z,101879.23
2023-05-10T09:02:01.523Z,101889.40
2023-05-10T09:05:35.043Z,101902.68
2023-05-10T09:08:01.909Z,101917.80
2023-05-10T09:10:29.450Z,101929.60
2023-05-10T09:12:59.190Z,101944.92
2023-05-10T09:15:26.629Z,101944.52
2023-05-10T09:17:53.668Z,101936.55
2023-05-10T09:20:20.771Z,101940.46
2023-05-10T09:22:47.774Z,101946.57
2023-05-10T09:25:15.507Z,101953.02
2023-05-10T09:27:43.531Z,101954.09
2023-05-10T09:30:10.929Z,101956.00
2023-05-10T09:32:38.010Z,101969.02
2023-05-10T09:35:15.567Z,101974.36
2023-05-10T09:37:43.744Z,101974.81
2023-05-10T09:40:14.703Z,101977.77
2023-05-10T09:42:52.008Z,101980.20
2023-05-10T09:45:19.194Z,101970.97
2023-05-10T09:47:47.109Z,101973.95
2023-05-10T09:50:14.084Z,101974.63
2023-05-10T09:52:54.571Z,101978.27
2023-05-10T09:55:24.889Z,101980.10
2023-05-10T09:58:01.234Z,101978.39
2023-05-10T10:00:29.735Z,101975.43
2023-05-10T10:02:58.269Z,101973.95
2023-05-10T10:05:30.870Z,101965.56
2023-05-10T10:08:01.132Z,101962.05
2023-05-10T10:10:28.144Z,101963.84
2023-05-10T10:12:55.286Z,101966.52
2023-05-10T10:15:22.981Z,101968.26
2023-05-10T10:17:50.334Z,101968.85
2023-05-10T10:20:17.645Z,101968.45
2023-05-10T10:22:44.855Z,101963.31
2023-05-10T10:25:15.410Z,101962.09
2023-05-10T10:27:48.678Z,101963.30
2023-05-10T10:30:25.267Z,101963.94
2023-05-10T10:32:52.166Z,101959.44
2023-05-10T10:35:19.096Z,101959.95
2023-05-10T10:37:49.409Z,101959.04
2023-05-10T10:40:26.314Z,101960.58
2023-05-10T10:42:53.223Z,101961.34
2023-05-10T10:45:20.395Z,101958.64
2023-05-10T10:47:47.391Z,101953.00
2023-05-10T10:50:14.507Z,101948.85
2023-05-10T10:52:41.920Z,101944.30
2023-05-10T10:55:10.416Z,101939.63
2023-05-10T10:57:43.801Z,101938.79
2023-05-10T11:00:21.477Z,101936.73
2023-05-10T11:02:57.304Z,101932.11
2023-05-10T11:05:30.376Z,101931.39
2023-05-10T11:07:57.904Z,101929.55
2023-05-10T11:10:28.400Z,101924.41
2023-05-10T11:13:02.280Z,101926.40
2023-05-10T11:15:32.794Z,101919.83
2023-05-10T11:18:22.050Z,101918.73
2023-05-10T11:20:53.154Z,101918.43
2023-05-10T11:23:21.094Z,101913.09
2023-05-10T11:25:48.762Z,101910.77
2023-05-10T11:28:15.685Z,101912.70
2023-05-10T11:30:43.123Z,101910.79
2023-05-10T11:33:11.315Z,101908.77
2023-05-10T11:35:41.066Z,101907.75
2023-05-10T11:38:10.478Z,101905.20
2023-05-10T11:40:40.438Z,101906.36
2023-05-10T11:43:07.505Z,101905.98
2023-05-10T11:45:34.637Z,101906.60
2023-05-10T11:48:25.365Z,101909.08
2023-05-10T11:51:00.149Z,101907.63
2023-05-10T11:53:28.113Z,101909.46
2023-05-10T11:56:15.758Z,101906.06
2023-05-10T11:58:42.734Z,101902.55
2023-05-10T12:01:10.454Z,101899.86
2023-05-10T12:03:38.055Z,101900.10
2023-05-10T12:06:05.033Z,101892.06
2023-05-10T12:08:34.796Z,101891.63
2023-05-10T12:11:11.146Z,101890.08
2023-05-10T12:13:41.628Z,101891.03
2023-05-10T12:16:15.869Z,101888.27
2023-05-10T12:18:43.897Z,101882.88
2023-05-10T12:21:13.112Z,101884.13
2023-05-10T12:23:40.369Z,101885.77
2023-05-10T12:26:07.352Z,101885.73
2023-05-10T12:28:34.331Z,101882.80
2023-05-10T12:31:01.413Z,101886.11
2023-05-10T12:33:28.541Z,101884.66
2023-05-10T12:35:55.728Z,101886.95
2023-05-10T12:38:33.134Z,101890.49
2023-05-10T12:41:04.103Z,101892.50
2023-05-10T12:43:31.341Z,101892.21
2023-05-10T12:45:58.559Z,101894.71
2023-05-10T12:48:25.674Z,101894.90
2023-05-10T12:50:52.452Z,101893.29
2023-05-10T12:53:19.471Z,101893.16
2023-05-10T12:55:49.158Z,101893.81
2023-05-10T12:58:31.584Z,101891.75
2023-05-10T13:01:02.727Z,101892.60
2023-05-10T13:03:29.720Z,101896.27
2023-05-10T13:05:56.576Z,101896.39
2023-05-10T13:08:23.572Z,101894.17
2023-05-10T13:10:50.572Z,101894.73
2023-05-10T13:13:17.643Z,101896.83
2023-05-10T13:15:44.744Z,101898.38
2023-05-10T13:18:11.829Z,101898.54
2023-05-10T13:20:39.152Z,101898.21
2023-05-10T13:23:06.685Z,101901.20
2023-05-10T13:25:35.624Z,101904.62
2023-05-10T13:28:03.007Z,101902.71
2023-05-10T13:30:30.191Z,101901.73
2023-05-10T13:32:57.270Z,101909.35
2023-05-10T13:35:24.345Z,101913.30
2023-05-10T13:37:51.187Z,101931.48
2023-05-10T13:40:18.433Z,101926.90
2023-05-10T13:42:45.718Z,101921.73
2023-05-10T13:45:13.398Z,101920.97
2023-05-10T13:47:40.400Z,101935.65
2023-05-10T13:50:10.308Z,101935.52
2023-05-10T13:52:37.389Z,101945.08
2023-05-10T13:55:04.738Z,101943.91
2023-05-10T13:57:31.765Z,101938.42
2023-05-10T14:00:01.732Z,101937.20
2023-05-10T14:02:35.876Z,101937.66
2023-05-10T14:05:02.908Z,101935.48
2023-05-10T14:07:30.777Z,101933.15
2023-05-10T14:10:01.033Z,101936.65
2023-05-10T14:12:28.464Z,101944.31
2023-05-10T14:14:55.565Z,101937.52
2023-05-10T14:17:23.565Z,101943.17
2023-05-10T14:19:50.874Z,101941.21
2023-05-10T14:22:17.823Z,101943.89
2023-05-10T14:24:48.186Z,101946.59
2023-05-10T14:27:19.269Z,101947.25
2023-05-10T14:29:46.097Z,101941.73
2023-05-10T14:32:13.168Z,101942.44
2023-05-10T14:34:40.259Z,101937.56
2023-05-10T14:37:07.463Z,101938.67
2023-05-10T14:39:34.934Z,101935.20
2023-05-10T14:42:02.609Z,101929.04
2023-05-10T14:44:30.126Z,101932.04
2023-05-10T14:46:57.544Z,101927.92
2023-05-10T14:49:26.788Z,101927.91
2023-05-10T14:51:56.895Z,101926.88
2023-05-10T14:54:23.726Z,101925.10
2023-05-10T14:56:51.113Z,101924.80
2023-05-10T14:59:18.896Z,101924.83
2023-05-10T15:01:46.419Z,101922.91
2023-05-10T15:04:16.579Z,101918.38
2023-05-10T15:06:44.829Z,101916.96
2023-05-10T15:09:11.937Z,101915.63
2023-05-10T15:11:38.986Z,101911.63
2023-05-10T15:14:05.965Z,101907.77
2023-05-10T15:16:35.627Z,101905.38
2023-05-10T15:19:03.267Z,101901.05
2023-05-10T15:21:31.903Z,101895.46
2023-05-10T15:23:59.155Z,101893.21
2023-05-10T15:26:27.498Z,101888.01
2023-05-10T15:28:54.283Z,101891.58
2023-05-10T15:31:21.149Z,101888.97
2023-05-10T15:33:48.057Z,101887.29
2023-05-10T15:36:14.852Z,101886.31
2023-05-10T15:38:41.653Z,101887.25
2023-05-10T15:41:08.629Z,101882.93
2023-05-10T15:43:37.271Z,101881.27
2023-05-10T15:46:04.353Z,101880.06
2023-05-10T15:48:32.471Z,101875.84
2023-05-10T15:51:00.882Z,101879.04
2023-05-10T15:53:28.157Z,101879.48
2023-05-10T15:55:55.269Z,101882.20
2023-05-10T15:58:23.506Z,101880.06
2023-05-10T16:00:50.508Z,101881.17
2023-05-10T16:03:17.320Z,101881.01
2023-05-10T16:05:44.152Z,101882.29
2023-05-10T16:08:11.071Z,101881.52
2023-05-10T16:10:38.203Z,101879.12
2023-05-10T16:13:05.121Z,101879.58
2023-05-10T16:15:32.039Z,101880.60
2023-05-10T16:17:59.157Z,101881.05
2023-05-10T16:20:26.664Z,101884.41
2023-05-10T16:22:53.480Z,101886.88
2023-05-10T16:25:20.570Z,101892.46
2023-05-10T16:27:47.488Z,101894.02
2023-05-10T16:30:14.516Z,101894.65
2023-05-10T16:32:41.465Z,101893.94
2023-05-10T16:35:08.689Z,101894.05
2023-05-10T16:37:36.050Z,101893.55
2023-05-10T16:40:03.225Z,101895.08
2023-05-10T16:42:30.639Z,101896.84
2023-05-10T16:44:57.635Z,101896.71
2023-05-10T16:47:26.977Z,101900.73
2023-05-10T16:49:53.953Z,101904.07
2023-05-10T16:52:20.802Z,101904.95
2023-05-10T16:54:47.731Z,101904.89
2023-05-10T16:57:14.580Z,101905.74
2023-05-10T16:59:41.530Z,101907.94
2023-05-10T17:02:08.597Z,101906.76
2023-05-10T17:04:35.639Z,101905.88
2023-05-10T17:07:02.399Z,101905.14
2023-05-10T17:09:29.192Z,101913.91
2023-05-10T17:11:56.051Z,101909.15
2023-05-10T17:14:23.267Z,101915.79
2023-05-10T17:16:52.922Z,101916.52
2023-05-10T17:19:20.032Z,101913.14
2023-05-10T17:21:47.060Z,101913.59
2023-05-10T17:24:14.121Z,101919.18
2023-05-10T17:26:41.316Z,101924.65
2023-05-10T17:29:08.423Z,101927.67
2023-05-10T17:31:35.358Z,101932.04
2023-05-10T17:34:04.714Z,101934.05
2023-05-10T17:36:32.744Z,101935.23
2023-05-10T17:38:59.697Z,101934.60
2023-05-10T17:41:26.544Z,101937.08
2023-05-10T17:43:54.003Z,101942.94
2023-05-10T17:46:20.896Z,101947.31
2023-05-10T17:48:48.044Z,101948.84
2023-05-10T17:51:15.515Z,101954.48
2023-05-10T17:53:42.475Z,101957.69
2023-05-10T17:56:09.777Z,101961.55
2023-05-10T17:58:38.506Z,101966.71
2023-05-10T18:01:05.860Z,101971.45
2023-05-10T18:03:33.997Z,101976.60
2023-05-10T18:06:00.870Z,101977.55
2023-05-10T18:08:29.030Z,101983.10
2023-05-10T18:10:56.214Z,101983.80
2023-05-10T18:13:23.104Z,101987.50
2023-05-10T18:15:50.282Z,101988.05
2023-05-10T18:18:17.735Z,101996.20
2023-05-10T18:20:46.367Z,102002.86
2023-05-10T18:23:15.342Z,102004.01
2023-05-10T18:25:42.616Z,102005.70
2023-05-10T18:28:09.566Z,102006.98
2023-05-10T18:30:36.414Z,102004.26
2023-05-10T18:33:03.694Z,102002.73
2023-05-10T18:35:30.549Z,102001.76
2023-05-10T18:37:57.390Z,102004.89
2023-05-10T18:40:24.884Z,102007.98
2023-05-10T18:42:52.343Z,102009.45
2023-05-10T18:45:19.523Z,102009.48
2023-05-10T18:47:46.627Z,102012.11
2023-05-10T18:50:13.501Z,102012.90
2023-05-10T18:52:40.450Z,102008.73
2023-05-10T18:55:08.583Z,102009.48
2023-05-10T18:57:41.802Z,102008.64
2023-05-10T19:00:10.564Z,102010.58
2023-05-10T19:02:37.802Z,102013.86
2023-05-10T19:05:04.781Z,102013.36
2023-05-10T19:07:31.791Z,102011.81
2023-05-10T19:09:58.689Z,102013.02
2023-05-10T19:12:25.548Z,102013.19
2023-05-10T19:14:52.463Z,102012.33
2023-05-10T19:17:19.232Z,102011.45
2023-05-10T19:19:46.168Z,102012.39
2023-05-10T19:22:13.460Z,102006.95
2023-05-10T19:24:40.363Z,102012.69
2023-05-10T19:27:07.383Z,102007.94
2023-05-10T19:29:34.288Z,102010.70
2023-05-10T19:32:01.116Z,102010.04
2023-05-10T19:34:30.062Z,102010.93
2023-05-10T19:36:56.919Z,102002.46
2023-05-10T19:39:23.690Z,102003.69
2023-05-10T19:41:51.272Z,102005.57
2023-05-10T19:44:18.275Z,102004.88
2023-05-10T19:46:45.219Z,102003.36
2023-05-10T19:49:12.033Z,101997.70
2023-05-10T19:51:38.867Z,102000.64
2023-05-10T19:54:05.735Z,102003.42
2023-05-10T19:56:32.469Z,101999.97
2023-05-10T19:58:59.717Z,102001.88
2023-05-10T20:01:27.019Z,102003.61
2023-05-10T20:03:53.972Z,102002.38
2023-05-10T20:06:20.920Z,102004.23
2023-05-10T20:08:47.675Z,102006.33
2023-05-10T20:11:14.462Z,102003.03
2023-05-10T20:13:41.259Z,102003.50
2023-05-10T20:16:08.150Z,102002.93
2023-05-10T20:18:35.073Z,102008.14
2023-05-10T20:21:01.936Z,102008.98
2023-05-10T20:23:28.948Z,102013.45
2023-05-10T20:25:55.901Z,102014.01
2023-05-10T20:28:23.404Z,102015.05
2023-05-10T20:30:53.832Z,102015.45
2023-05-10T20:33:21.299Z,102014.47
2023-05-10T20:35:48.168Z,102011.87
2023-05-10T20:38:14.970Z,102011.90
2023-05-10T20:40:41.956Z,102012.98
2023-05-10T20:43:08.793Z,102011.10
2023-05-10T20:45:37.445Z,102010.20
2023-05-10T20:48:04.793Z,102004.98
2023-05-10T20:50:31.670Z,102005.61
2023-05-10T20:52:58.459Z,102007.70
2023-05-10T20:55:25.293Z,102007.20
2023-05-10T20:57:53.033Z,102014.48
2023-05-10T21:00:20.171Z,102008.92
2023-05-10T21:02:47.334Z,102010.64
2023-05-10T21:05:14.493Z,102010.14
2023-05-10T21:07:41.545Z,102014.28
2023-05-10T21:10:08.807Z,102015.83
2023-05-10T21:12:35.879Z,102012.90
2023-05-10T21:15:03.305Z,102018.81
2023-05-10T21:17:30.173Z,102015.19
2023-05-10T21:19:57.005Z,102016.58
2023-05-10T21:22:23.826Z,102009.96
2023-05-10T21:24:50.642Z,102009.45
2023-05-10T21:27:17.470Z,102005.98
2023-05-10T21:29:44.367Z,102007.20
2023-05-10T21:32:11.274Z,102007.69
2023-05-10T21:34:38.361Z,102009.15
2023-05-10T21:37:05.265Z,102006.52
2023-05-10T21:39:32.133Z,102004.61
2023-05-10T21:42:00.693Z,102007.41
2023-05-10T21:44:27.519Z,102008.81
2023-05-10T21:46:54.667Z,102006.55
2023-05-10T21:49:21.617Z,102005.49
2023-05-10T21:51:48.754Z,102011.06
2023-05-10T21:54:15.569Z,102012.48
2023-05-10T21:56:42.465Z,102014.39
2023-05-10T21:59:09.301Z,102010.95
2023-05-10T22:01:36.205Z,102010.27
2023-05-10T22:04:06.343Z,102014.23
2023-05-10T22:06:33.175Z,102015.44
2023-05-10T22:09:00.051Z,102012.00
2023-05-10T22:11:27.634Z,102011.45
2023-05-10T22:13:54.416Z,102010.92
2023-05-10T22:16:21.387Z,102014.74
2023-05-10T22:18:48.451Z,102011.29
2023-05-10T22:21:15.354Z,102012.66
2023-05-10T22:23:42.187Z,102005.38
2023-05-10T22:26:09.020Z,102008.67
2023-05-10T22:28:35.889Z,102009.04
2023-05-10T22:31:02.808Z,102005.07
2023-05-10T22:33:29.773Z,102004.55
2023-05-10T22:35:56.501Z,102008.17
2023-05-10T22:38:23.290Z,102004.72
2023-05-10T22:40:50.444Z,102004.19
2023-05-10T22:43:18.138Z,102005.73
2023-05-10T22:45:45.004Z,102002.45
2023-05-10T22:48:11.978Z,101996.71
2023-05-10T22:50:38.842Z,101997.89
2023-05-10T22:53:06.706Z,101995.11
2023-05-10T22:55:33.561Z,101995.11
2023-05-10T22:58:01.231Z,101997.73
2023-05-10T23:00:28.017Z,102000.52
2023-05-10T23:02:54.957Z,101997.41
2023-05-10T23:05:22.519Z,101998.61
2023-05-10T23:07:53.269Z,102001.75
2023-05-10T23:10:20.331Z,101996.20
2023-05-10T23:12:47.282Z,102000.34
2023-05-10T23:15:14.063Z,101996.88
2023-05-10T23:17:41.177Z,102002.58
2023-05-10T23:20:08.855Z,101999.63
2023-05-10T23:22:35.749Z,101998.25
2023-05-10T23:25:02.565Z,101997.75
2023-05-10T23:27:30.222Z,101995.50
2023-05-10T23:29:57.494Z,101997.05
2023-05-10T23:32:24.494Z,101999.66
2023-05-10T23:34:51.305Z,102002.77
2023-05-10T23:37:18.224Z,102001.73
2023-05-10T23:39:45.118Z,102002.77
2023-05-10T23:42:12.021Z,101999.48
2023-05-10T23:44:38.850Z,102005.21
2023-05-10T23:47:06.245Z,102005.38
2023-05-10T23:49:33.163Z,102009.20
2023-05-10T23:51:59.985Z,102006.96
2023-05-10T23:54:26.825Z,102007.30
2023-05-10T23:56:53.570Z,102007.98
2023-05-10T23:59:20.366Z,102008.83
